Chicago, Illinois
Traffic Map
Current Weather Conditions
Chicago, Illinois
Overcast Light Rain
Overcast

Feels Like: 6°
Wind Chill: Ceiling: 1300
Heat Index: Visibility: 5mi
Dew Point: Wind: 12mph
Humidity: 93% Direction: 260° (W)
Pressure: 29.52in Gusts: 0mph
Raw Report DataKMDW 241053Z 26010KT 5SM -RA BR BKN013 OVC018 09/08 A2952 RMK AO2 RAE13B44DZB13E44 SLP997 P0001 T00890078
Traffic Incident Summary
Active as of:
Severity:
Category:
InformationThere was an issue retrieving the traffic information for this location. Please try a different location or try again shortly.
Advertisements